createdAt,value
2017-07-24T00:00:05.657Z,0
2017-07-24T00:01:20.581Z,0
2017-07-24T00:02:05.702Z,0
2017-07-24T00:04:06.071Z,0
2017-07-24T00:05:06.123Z,0
2017-07-24T00:06:06.114Z,0
2017-07-24T00:07:05.814Z,0
2017-07-24T00:08:06.165Z,0
2017-07-24T00:09:05.861Z,0
2017-07-24T00:10:05.896Z,0
2017-07-24T00:11:20.819Z,0
2017-07-24T00:12:06.246Z,0
2017-07-24T00:13:06.276Z,0
2017-07-24T00:14:20.897Z,0
2017-07-24T00:15:05.716Z,0
2017-07-24T00:16:06.047Z,0
2017-07-24T00:17:06.054Z,0
2017-07-24T00:18:06.082Z,0
2017-07-24T00:19:06.429Z,0
2017-07-24T00:21:06.166Z,0
2017-07-24T00:23:06.531Z,0
2017-07-24T00:24:06.530Z,0
2017-07-24T00:25:06.605Z,0
2017-07-24T00:26:21.191Z,0
2017-07-24T00:28:06.649Z,0
2017-07-24T00:29:20.941Z,0
2017-07-24T00:30:21.270Z,0
2017-07-24T00:31:06.411Z,0
2017-07-24T00:32:06.745Z,0
2017-07-24T00:33:06.742Z,0
2017-07-24T00:34:06.796Z,0
2017-07-24T00:35:06.788Z,0
2017-07-24T00:36:06.832Z,0
2017-07-24T00:37:06.852Z,0
2017-07-24T00:38:06.910Z,0
2017-07-24T00:39:06.913Z,0
2017-07-24T00:40:06.930Z,0
2017-07-24T00:41:06.943Z,0
2017-07-24T00:44:07.028Z,0
2017-07-24T00:45:07.063Z,0
2017-07-24T00:46:07.072Z,0
2017-07-24T00:47:07.110Z,0
2017-07-24T00:48:07.124Z,0
2017-07-24T00:49:07.147Z,0
2017-07-24T00:50:07.159Z,0
2017-07-24T00:51:07.208Z,0
2017-07-24T00:52:06.937Z,0
2017-07-24T00:53:07.230Z,0
2017-07-24T00:54:07.261Z,0
2017-07-24T00:55:06.973Z,0
2017-07-24T00:56:07.341Z,0
2017-07-24T00:57:07.340Z,0
2017-07-24T00:58:36.569Z,0
2017-07-24T00:59:21.985Z,0
2017-07-24T01:00:07.422Z,0
2017-07-24T01:01:07.137Z,0
2017-07-24T01:02:22.069Z,0
2017-07-24T01:03:22.064Z,0
2017-07-24T01:04:07.520Z,0
2017-07-24T01:05:07.519Z,0
2017-07-24T01:06:07.561Z,0
2017-07-24T01:08:07.616Z,0
2017-07-24T01:09:22.232Z,0
2017-07-24T01:10:07.346Z,0
2017-07-24T01:11:22.304Z,0
2017-07-24T01:12:07.689Z,0
2017-07-24T01:13:22.316Z,0
2017-07-24T01:14:22.348Z,0
2017-07-24T01:15:22.382Z,0
2017-07-24T01:16:07.503Z,0
2017-07-24T01:17:07.816Z,0
2017-07-24T01:18:07.865Z,0
2017-07-24T01:19:07.563Z,0
2017-07-24T01:20:07.918Z,0
2017-07-24T01:21:22.514Z,0
2017-07-24T01:22:07.626Z,0
2017-07-24T01:24:07.663Z,0
2017-07-24T01:25:07.718Z,0
2017-07-24T01:26:22.630Z,0
2017-07-24T01:27:08.078Z,0
2017-07-24T01:28:08.090Z,0
2017-07-24T01:29:07.804Z,0
2017-07-24T01:30:22.731Z,0
2017-07-24T01:31:08.174Z,0
2017-07-24T01:32:07.869Z,0
2017-07-24T01:33:08.213Z,0
2017-07-24T01:34:22.840Z,0
2017-07-24T01:35:08.270Z,0
2017-07-24T01:36:08.321Z,0
2017-07-24T01:37:08.002Z,0
2017-07-24T01:38:08.342Z,0
2017-07-24T01:39:08.355Z,0
2017-07-24T01:40:08.388Z,0
2017-07-24T01:41:08.417Z,0
2017-07-24T01:42:08.417Z,0
2017-07-24T01:43:08.465Z,0
2017-07-24T01:44:08.467Z,0
2017-07-24T01:45:08.508Z,0
2017-07-24T01:47:08.553Z,0
2017-07-24T01:48:08.581Z,0
2017-07-24T01:49:08.588Z,0
2017-07-24T01:50:08.320Z,0
2017-07-24T01:51:08.631Z,0
2017-07-24T01:53:08.692Z,0
2017-07-24T01:54:08.734Z,0
2017-07-24T01:55:23.337Z,0
2017-07-24T01:56:08.769Z,0
2017-07-24T01:57:08.778Z,0
2017-07-24T01:58:08.844Z,0
2017-07-24T01:59:08.817Z,0
2017-07-24T02:00:08.870Z,0
2017-07-24T02:01:38.139Z,0
2017-07-24T02:02:08.607Z,0
2017-07-24T02:03:08.956Z,0
2017-07-24T02:04:08.949Z,0
2017-07-24T02:05:09.044Z,0
2017-07-24T02:06:09.002Z,0
2017-07-24T02:07:08.422Z,0
2017-07-24T02:08:23.653Z,0
2017-07-24T02:09:09.080Z,0
2017-07-24T02:10:09.107Z,0
2017-07-24T02:11:23.724Z,0
2017-07-24T02:12:08.874Z,0
2017-07-24T02:13:09.227Z,0
2017-07-24T02:14:09.212Z,0
2017-07-24T02:15:09.212Z,0
2017-07-24T02:16:08.945Z,0
2017-07-24T02:17:09.256Z,0
2017-07-24T02:18:09.002Z,0
2017-07-24T02:19:09.302Z,0
2017-07-24T02:20:09.363Z,0
2017-07-24T02:21:23.955Z,0
2017-07-24T02:22:09.396Z,0
2017-07-24T02:23:24.018Z,0
2017-07-24T02:24:09.457Z,0
2017-07-24T02:25:09.458Z,0
2017-07-24T02:26:24.097Z,0
2017-07-24T02:28:09.515Z,0
2017-07-24T02:29:09.563Z,0
2017-07-24T02:30:09.287Z,0
2017-07-24T02:31:09.628Z,0
2017-07-24T02:32:09.615Z,0
2017-07-24T02:33:23.956Z,0
2017-07-24T02:34:24.333Z,4
2017-07-24T02:35:09.085Z,4
2017-07-24T02:36:09.720Z,4
2017-07-24T02:37:09.761Z,4
2017-07-24T02:39:09.794Z,0
2017-07-24T02:40:09.843Z,4
2017-07-24T02:41:24.453Z,4
2017-07-24T02:42:09.569Z,4
2017-07-24T02:43:09.886Z,4
2017-07-24T02:44:09.929Z,8
2017-07-24T02:45:09.985Z,4
2017-07-24T02:46:09.667Z,8
2017-07-24T02:47:09.984Z,8
2017-07-24T02:48:10.026Z,12
2017-07-24T02:50:10.087Z,12
2017-07-24T02:51:09.778Z,12
2017-07-24T02:52:10.128Z,16
2017-07-24T02:53:10.134Z,16
2017-07-24T02:55:10.242Z,24
2017-07-24T02:56:10.219Z,28
2017-07-24T02:57:10.225Z,36
2017-07-24T02:58:10.249Z,36
2017-07-24T02:59:10.293Z,44
2017-07-24T03:00:10.306Z,52
2017-07-24T03:01:10.338Z,60
2017-07-24T03:02:10.032Z,68
2017-07-24T03:03:10.396Z,80
2017-07-24T03:04:10.405Z,88
2017-07-24T03:05:25.015Z,100
2017-07-24T03:06:10.443Z,108
2017-07-24T03:07:10.473Z,116
2017-07-24T03:08:10.207Z,124
2017-07-24T03:09:10.508Z,136
2017-07-24T03:10:10.545Z,148
2017-07-24T03:11:10.574Z,156
2017-07-24T03:12:10.603Z,168
2017-07-24T03:13:10.589Z,176
2017-07-24T03:14:10.652Z,188
2017-07-24T03:15:10.656Z,200
2017-07-24T03:16:10.664Z,212
2017-07-24T03:17:10.723Z,228
2017-07-24T03:18:10.756Z,248
2017-07-24T03:19:10.772Z,264
2017-07-24T03:20:10.465Z,288
2017-07-24T03:21:25.390Z,324
2017-07-24T03:22:10.847Z,344
2017-07-24T03:23:10.845Z,380
2017-07-24T03:24:10.899Z,412
2017-07-24T03:25:10.901Z,444
2017-07-24T03:26:10.945Z,476
2017-07-24T03:28:25.586Z,544
2017-07-24T03:29:10.686Z,580
2017-07-24T03:30:11.024Z,616
2017-07-24T03:31:11.042Z,656
2017-07-24T03:32:25.362Z,700
2017-07-24T03:33:11.078Z,724
2017-07-24T03:34:10.817Z,760
2017-07-24T03:35:11.144Z,800
2017-07-24T03:37:11.192Z,924
2017-07-24T03:38:25.491Z,1016
2017-07-24T03:39:10.932Z,1068
2017-07-24T03:40:11.265Z,1136
2017-07-24T03:41:11.303Z,1184
2017-07-24T03:42:10.700Z,1224
2017-07-24T03:43:11.016Z,1256
2017-07-24T03:44:11.370Z,1276
2017-07-24T03:45:11.092Z,1292
2017-07-24T03:46:26.002Z,1340
2017-07-24T03:47:11.436Z,1384
2017-07-24T03:49:11.489Z,1540
2017-07-24T03:50:11.247Z,1592
2017-07-24T03:51:11.551Z,1628
2017-07-24T03:52:11.247Z,1644
2017-07-24T03:53:11.576Z,1660
2017-07-24T03:54:11.607Z,1664
2017-07-24T03:55:11.310Z,1672
2017-07-24T03:57:11.671Z,1900
2017-07-24T03:58:11.394Z,2088
2017-07-24T03:59:11.709Z,2224
2017-07-24T04:00:11.755Z,2308
2017-07-24T04:01:11.444Z,2404
2017-07-24T04:02:11.798Z,2544
2017-07-24T04:03:11.815Z,2632
2017-07-24T04:04:11.863Z,2652
2017-07-24T04:05:11.877Z,2768
2017-07-24T04:06:11.899Z,2932
2017-07-24T04:07:11.918Z,3124
2017-07-24T04:08:41.140Z,3388
2017-07-24T04:09:11.949Z,3476
2017-07-24T04:11:11.985Z,3644
2017-07-24T04:12:12.036Z,3684
2017-07-24T04:13:12.066Z,3768
2017-07-24T04:14:12.084Z,3908
2017-07-24T04:15:12.114Z,4048
2017-07-24T04:16:26.708Z,4284
2017-07-24T04:17:12.155Z,4440
2017-07-24T04:18:11.841Z,4620
2017-07-24T04:19:26.809Z,4840
2017-07-24T04:20:12.215Z,4968
2017-07-24T04:21:12.252Z,5128
2017-07-24T04:22:12.296Z,5304
2017-07-24T04:23:12.302Z,5500
2017-07-24T04:24:26.917Z,5740
2017-07-24T04:25:12.345Z,6264
2017-07-24T04:26:12.385Z,6024
2017-07-24T04:27:12.398Z,5924
2017-07-24T04:28:12.432Z,5864
2017-07-24T04:29:12.445Z,5888
2017-07-24T04:30:12.183Z,6296
2017-07-24T04:31:12.173Z,6760
2017-07-24T04:32:12.209Z,6900
2017-07-24T04:33:12.525Z,7016
2017-07-24T04:34:12.260Z,7364
2017-07-24T04:35:12.569Z,7216
2017-07-24T04:36:12.615Z,7656
2017-07-24T04:37:27.242Z,8100
2017-07-24T04:38:12.672Z,8320
2017-07-24T04:39:12.686Z,8436
2017-07-24T04:40:27.314Z,8936
2017-07-24T04:41:12.734Z,9552
2017-07-24T04:43:12.775Z,10948
2017-07-24T04:44:12.518Z,11816
2017-07-24T04:45:12.842Z,11468
2017-07-24T04:46:12.610Z,11040
2017-07-24T04:47:12.575Z,11236
2017-07-24T04:48:12.585Z,12188
2017-07-24T04:49:27.229Z,15476
2017-07-24T04:50:12.964Z,19040
2017-07-24T04:51:12.999Z,39904
2017-07-24T04:52:12.703Z,48544
2017-07-24T04:53:13.017Z,55264
2017-07-24T04:54:27.357Z,48704
2017-07-24T04:55:27.366Z,24448
2017-07-24T04:56:27.702Z,31008
2017-07-24T04:57:13.134Z,19520
2017-07-24T04:58:27.444Z,19488
2017-07-24T04:59:13.199Z,18304
2017-07-24T05:00:13.197Z,24128
2017-07-24T05:01:12.939Z,35072
2017-07-24T05:02:13.266Z,42368
2017-07-24T05:03:13.281Z,45984
2017-07-24T05:04:13.324Z,33504
2017-07-24T05:05:13.335Z,23168
2017-07-24T05:06:13.366Z,28736
2017-07-24T05:07:13.393Z,29632
2017-07-24T05:09:28.064Z,20768
2017-07-24T05:10:13.486Z,17344
2017-07-24T05:11:28.125Z,21376
2017-07-24T05:12:13.220Z,19456
2017-07-24T05:14:13.600Z,23744
2017-07-24T05:15:13.609Z,14672
2017-07-24T05:17:13.695Z,23328
2017-07-24T05:18:13.697Z,20320
2017-07-24T05:19:13.434Z,21312
2017-07-24T05:20:13.492Z,28096
2017-07-24T05:21:13.477Z,44672
2017-07-24T05:22:13.821Z,36800
2017-07-24T05:23:28.422Z,39584
2017-07-24T05:24:13.874Z,37280
2017-07-24T05:25:13.899Z,37952
2017-07-24T05:26:28.534Z,38080
2017-07-24T05:27:13.939Z,40256
2017-07-24T05:28:13.991Z,32128
2017-07-24T05:29:28.593Z,20096
2017-07-24T05:30:14.048Z,24832
2017-07-24T05:31:14.058Z,24864
2017-07-24T05:32:14.091Z,24544
2017-07-24T05:33:13.804Z,21472
2017-07-24T05:34:13.862Z,15128
2017-07-24T05:35:28.781Z,13756
2017-07-24T05:36:14.218Z,14448
2017-07-24T05:37:14.252Z,15872
2017-07-24T05:38:14.281Z,18624
2017-07-24T05:39:14.290Z,19392
2017-07-24T05:40:14.011Z,17760
2017-07-24T05:41:14.334Z,16832
2017-07-24T05:42:14.089Z,18464
2017-07-24T05:44:14.432Z,18848
2017-07-24T05:47:14.205Z,14492
2017-07-24T05:48:14.568Z,12988
2017-07-24T05:49:13.977Z,12560
2017-07-24T05:50:14.625Z,12888
2017-07-24T05:51:14.619Z,13484
2017-07-24T05:52:14.691Z,14112
2017-07-24T05:53:29.285Z,14504
2017-07-24T05:54:14.731Z,14972
2017-07-24T05:55:14.735Z,17600
2017-07-24T05:56:14.791Z,18048
2017-07-24T05:57:14.496Z,17920
2017-07-24T05:58:14.839Z,18048
2017-07-24T05:59:29.152Z,18048
2017-07-24T06:00:14.913Z,19776
2017-07-24T06:01:14.912Z,20096
2017-07-24T06:02:14.959Z,25152
2017-07-24T06:03:14.968Z,26016
2017-07-24T06:04:15.000Z,32448
2017-07-24T06:05:15.041Z,32704
2017-07-24T06:06:15.060Z,33824
2017-07-24T06:07:15.091Z,39520
2017-07-24T06:08:14.796Z,44192
2017-07-24T06:09:14.818Z,43776
2017-07-24T06:10:15.157Z,47072
2017-07-24T06:11:15.205Z,52704
2017-07-24T06:12:15.208Z,64928
2017-07-24T06:13:15.256Z,63232
2017-07-24T06:14:15.281Z,56032
2017-07-24T06:15:29.604Z,46656
2017-07-24T06:16:15.345Z,39872
2017-07-24T06:17:15.356Z,33088
2017-07-24T06:18:15.402Z,31872
2017-07-24T06:19:15.425Z,31264
2017-07-24T06:20:30.074Z,30848
2017-07-24T06:21:15.492Z,27552
2017-07-24T06:22:15.526Z,31616
2017-07-24T06:23:15.243Z,34432
2017-07-24T06:24:15.580Z,35840
2017-07-24T06:25:15.617Z,34208
2017-07-24T06:26:30.242Z,30272
2017-07-24T06:27:15.672Z,31552
2017-07-24T06:28:15.719Z,31648
2017-07-24T06:29:15.732Z,37024
2017-07-24T06:30:15.769Z,41664
2017-07-24T06:31:30.393Z,32768
2017-07-24T06:32:15.833Z,34240
2017-07-24T06:33:30.437Z,35360
2017-07-24T06:34:15.572Z,35648
2017-07-24T06:35:15.603Z,32416
2017-07-24T06:36:15.951Z,30464
2017-07-24T06:37:15.671Z,30976
2017-07-24T06:38:15.997Z,31520
2017-07-24T06:39:15.728Z,27808
2017-07-24T06:40:15.451Z,28512
2017-07-24T06:41:16.107Z,32352
2017-07-24T06:42:15.816Z,33024
2017-07-24T06:43:16.177Z,30368
2017-07-24T06:44:30.474Z,32224
2017-07-24T06:46:30.841Z,33440
2017-07-24T06:47:16.267Z,34688
2017-07-24T06:48:16.326Z,43168
2017-07-24T06:49:16.337Z,43744
2017-07-24T06:50:16.377Z,46400
2017-07-24T06:52:16.435Z,39392
2017-07-24T06:53:16.172Z,42848
2017-07-24T06:54:16.190Z,39936
2017-07-24T06:55:31.127Z,44096
2017-07-24T06:56:16.253Z,39392
2017-07-24T06:57:16.596Z,36256
2017-07-24T06:58:16.635Z,36064
2017-07-24T06:59:16.635Z,40800
2017-07-24T07:00:16.706Z,40320
2017-07-24T07:01:16.707Z,47040
2017-07-24T07:02:16.776Z,50688
2017-07-24T07:03:16.444Z,50240
2017-07-24T07:04:16.490Z,49344
2017-07-24T07:05:16.891Z,47296
2017-07-24T07:06:16.580Z,54752
2017-07-24T07:07:31.527Z,57152
2017-07-24T07:08:16.932Z,64128
2017-07-24T07:09:16.977Z,68000
2017-07-24T07:10:17.040Z,69984
2017-07-24T07:11:17.047Z,59360
2017-07-24T07:14:17.154Z,48352
2017-07-24T07:16:17.417Z,50752
2017-07-24T07:18:31.884Z,52992
2017-07-24T07:19:31.591Z,55392
2017-07-24T07:20:17.342Z,50976
2017-07-24T07:21:16.748Z,57408
2017-07-24T07:22:31.704Z,59104
2017-07-24T07:23:16.802Z,62592
2017-07-24T07:24:17.479Z,60192
2017-07-24T07:25:32.110Z,54496
2017-07-24T07:26:17.250Z,52256
2017-07-24T07:27:17.264Z,52608
2017-07-24T07:28:17.618Z,49120
2017-07-24T07:29:17.029Z,50688
2017-07-24T07:30:17.681Z,44864
2017-07-24T07:31:17.725Z,48896
2017-07-24T07:32:17.432Z,47840
2017-07-24T07:33:17.487Z,46048
2017-07-24T07:34:32.102Z,47808
2017-07-24T07:35:17.854Z,48896
2017-07-24T07:36:17.879Z,54816
2017-07-24T07:37:17.636Z,56832
2017-07-24T07:38:17.962Z,58112
2017-07-24T07:39:17.995Z,62880
2017-07-24T07:40:18.029Z,63680
2017-07-24T07:41:18.050Z,61920
2017-07-24T07:42:17.789Z,62688
2017-07-24T07:43:18.116Z,63680
2017-07-24T07:44:32.758Z,64608
2017-07-24T07:45:18.217Z,60000
2017-07-24T07:46:17.910Z,58848
2017-07-24T07:47:18.276Z,60128
2017-07-24T07:48:17.996Z,58560
2017-07-24T07:49:32.329Z,57664
2017-07-24T07:50:32.987Z,56992
2017-07-24T07:51:18.382Z,57152
2017-07-24T07:52:18.479Z,51040
2017-07-24T07:53:18.177Z,46208
2017-07-24T07:54:18.222Z,51264
2017-07-24T07:55:18.247Z,54208
2017-07-24T07:56:33.192Z,56160
2017-07-24T07:57:18.308Z,56224
2017-07-24T07:58:18.350Z,56384
2017-07-24T07:59:18.395Z,62240
2017-07-24T08:00:18.738Z,65472
2017-07-24T08:01:18.477Z,65824
2017-07-24T08:02:18.179Z,49920
2017-07-24T08:03:18.544Z,62176
2017-07-24T08:04:18.252Z,56384
2017-07-24T08:05:33.505Z,64832
2017-07-24T08:06:33.542Z,60640
2017-07-24T08:07:18.979Z,58912
2017-07-24T08:09:18.750Z,62240
2017-07-24T08:10:19.108Z,59808
2017-07-24T08:11:18.819Z,59072
2017-07-24T08:12:19.208Z,57248
2017-07-24T08:13:19.210Z,54816
2017-07-24T08:14:18.911Z,61824
2017-07-24T08:15:18.959Z,64384
2017-07-24T08:16:19.299Z,61824
2017-07-24T08:17:19.052Z,60000
2017-07-24T08:18:19.108Z,59680
2017-07-24T08:19:19.411Z,58816
2017-07-24T08:20:19.129Z,57536
2017-07-24T08:21:33.788Z,47904
2017-07-24T08:22:19.528Z,35008
2017-07-24T08:23:19.550Z,23904
2017-07-24T08:24:19.611Z,22432
2017-07-24T08:25:19.640Z,22080
2017-07-24T08:26:19.679Z,21824
2017-07-24T08:28:19.728Z,21664
2017-07-24T08:29:19.172Z,21344
2017-07-24T08:30:19.187Z,21408
2017-07-24T08:31:18.938Z,20640
2017-07-24T08:32:34.510Z,19776
2017-07-24T08:33:19.915Z,19840
2017-07-24T08:34:19.667Z,20128
2017-07-24T08:36:19.731Z,18112
2017-07-24T08:37:19.770Z,17600
2017-07-24T08:38:19.807Z,18880
2017-07-24T08:39:34.739Z,19712
2017-07-24T08:40:20.194Z,19328
2017-07-24T08:41:19.923Z,19840
2017-07-24T08:42:20.270Z,19872
2017-07-24T08:43:34.907Z,19904
2017-07-24T08:44:19.726Z,19840
2017-07-24T08:45:20.354Z,19936
2017-07-24T08:46:34.704Z,19456
2017-07-24T08:47:20.145Z,18912
2017-07-24T08:48:20.485Z,19648
2017-07-24T08:49:20.531Z,19712
2017-07-24T08:50:19.937Z,17440
2017-07-24T08:51:20.280Z,18784
2017-07-24T08:52:20.620Z,19168
2017-07-24T08:53:35.264Z,19552
2017-07-24T08:54:20.720Z,19328
2017-07-24T08:55:20.722Z,19488
2017-07-24T08:56:35.370Z,20064
2017-07-24T08:57:20.809Z,19776
2017-07-24T08:58:20.845Z,19520
2017-07-24T08:59:20.896Z,19648
2017-07-24T09:00:20.906Z,19296
2017-07-24T09:01:20.956Z,18784
2017-07-24T09:02:20.994Z,18720
2017-07-24T09:03:35.321Z,18432
2017-07-24T09:04:20.751Z,18656
2017-07-24T09:05:35.729Z,19232
2017-07-24T09:06:20.814Z,19616
2017-07-24T09:07:21.181Z,19456
2017-07-24T09:08:20.892Z,18112
2017-07-24T09:09:35.858Z,19136
2017-07-24T09:10:20.660Z,19360
2017-07-24T09:11:20.712Z,18464
2017-07-24T09:12:21.349Z,18304
2017-07-24T09:13:21.092Z,19008
2017-07-24T09:14:21.110Z,18976
2017-07-24T09:15:21.460Z,18912
2017-07-24T09:16:21.507Z,18496
2017-07-24T09:17:36.124Z,18976
2017-07-24T09:18:21.269Z,19104
2017-07-24T09:19:21.588Z,19168
2017-07-24T09:20:21.336Z,19264
2017-07-24T09:21:21.669Z,19232
2017-07-24T09:22:21.414Z,18880
2017-07-24T09:23:21.439Z,17952
2017-07-24T09:24:21.160Z,18112
2017-07-24T09:25:36.111Z,18240
2017-07-24T09:27:21.890Z,18912
2017-07-24T09:28:21.600Z,17600
2017-07-24T09:29:36.577Z,17088
2017-07-24T09:30:21.996Z,16960
2017-07-24T09:31:22.045Z,15848
2017-07-24T09:32:21.760Z,15548
2017-07-24T09:33:36.406Z,17024
2017-07-24T09:34:21.504Z,17184
2017-07-24T09:35:22.180Z,15788
2017-07-24T09:37:21.932Z,14496
2017-07-24T09:38:22.282Z,15892
2017-07-24T09:39:21.695Z,16448
2017-07-24T09:40:22.046Z,16072
2017-07-24T09:41:36.987Z,15828
2017-07-24T09:42:36.711Z,16248
2017-07-24T09:44:22.495Z,16408
2017-07-24T09:45:22.862Z,17952
2017-07-24T09:46:22.264Z,18176
2017-07-24T09:47:22.588Z,17600
2017-07-24T09:48:22.320Z,17440
2017-07-24T09:49:37.257Z,15556
2017-07-24T09:50:22.674Z,15776
2017-07-24T09:51:22.749Z,15964
2017-07-24T09:52:22.750Z,15752
2017-07-24T09:53:22.507Z,15724
2017-07-24T09:54:22.834Z,15684
2017-07-24T09:55:22.761Z,15768
2017-07-24T09:56:37.488Z,15724
2017-07-24T09:57:37.219Z,15748
2017-07-24T09:58:22.654Z,15492
2017-07-24T09:59:37.585Z,15168
2017-07-24T10:00:23.030Z,15004
2017-07-24T10:01:22.758Z,15000
2017-07-24T10:02:23.093Z,14956
2017-07-24T10:03:23.146Z,14844
2017-07-24T10:04:22.868Z,15204
2017-07-24T10:05:23.200Z,15668
2017-07-24T10:06:23.227Z,15756
2017-07-24T10:07:23.263Z,15936
2017-07-24T10:08:37.917Z,15832
2017-07-24T10:09:23.030Z,15864
2017-07-24T10:10:23.388Z,15992
2017-07-24T10:11:23.431Z,15800
2017-07-24T10:12:23.428Z,15324
2017-07-24T10:13:23.168Z,14828
2017-07-24T10:14:23.179Z,14436
2017-07-24T10:15:38.157Z,15256
2017-07-24T10:16:23.260Z,15404
2017-07-24T10:17:23.304Z,16432
2017-07-24T10:18:23.639Z,17888
2017-07-24T10:19:23.682Z,18592
2017-07-24T10:21:23.421Z,19424
2017-07-24T10:22:23.472Z,19776
2017-07-24T10:23:23.504Z,19168
2017-07-24T10:24:23.549Z,18656
2017-07-24T10:25:23.868Z,17952
2017-07-24T10:26:23.906Z,17472
2017-07-24T10:27:23.949Z,17248
2017-07-24T10:28:53.181Z,16928
2017-07-24T10:29:24.012Z,16444
2017-07-24T10:30:26.202Z,15744
2017-07-24T10:31:24.054Z,15160
2017-07-24T10:32:24.123Z,15156
2017-07-24T10:33:24.123Z,14872
2017-07-24T10:34:24.181Z,14752
2017-07-24T10:35:24.198Z,14288
2017-07-24T10:36:24.246Z,13696
2017-07-24T10:37:24.269Z,13856
2017-07-24T10:38:24.318Z,14140
2017-07-24T10:39:24.330Z,14764
2017-07-24T10:40:24.389Z,14624
2017-07-24T10:41:24.428Z,14424
2017-07-24T10:42:24.431Z,14480
2017-07-24T10:43:24.462Z,14424
2017-07-24T10:45:24.555Z,14712
2017-07-24T10:46:24.561Z,14856
2017-07-24T10:47:24.308Z,14976
2017-07-24T10:48:24.639Z,15692
2017-07-24T10:49:24.076Z,16000
2017-07-24T10:50:24.710Z,15736
2017-07-24T10:51:24.739Z,15516
2017-07-24T10:52:24.763Z,15500
2017-07-24T10:53:24.821Z,15652
2017-07-24T10:55:24.261Z,14964
2017-07-24T10:56:24.896Z,14780
2017-07-24T10:57:39.540Z,14500
2017-07-24T10:58:24.967Z,14020
2017-07-24T10:59:25.023Z,13664
2017-07-24T11:00:39.311Z,13448
2017-07-24T11:01:25.065Z,13908
2017-07-24T11:02:25.110Z,14460
2017-07-24T11:03:24.827Z,14884
2017-07-24T11:04:24.858Z,15008
2017-07-24T11:06:24.923Z,14504
2017-07-24T11:07:25.256Z,14744
2017-07-24T11:08:25.290Z,15424
2017-07-24T11:09:25.331Z,15624
2017-07-24T11:10:39.972Z,13492
2017-07-24T11:12:25.415Z,12780
2017-07-24T11:13:25.158Z,12560
2017-07-24T11:14:25.176Z,12408
2017-07-24T11:15:25.509Z,12344
2017-07-24T11:16:40.150Z,13512
2017-07-24T11:17:25.610Z,13364
2017-07-24T11:18:25.630Z,12340
2017-07-24T11:19:25.642Z,11944
2017-07-24T11:20:25.375Z,12556
2017-07-24T11:21:25.730Z,12072
2017-07-24T11:22:25.741Z,12056
2017-07-24T11:25:25.838Z,12132
2017-07-24T11:26:25.884Z,12028
2017-07-24T11:27:25.611Z,12064
2017-07-24T11:28:25.640Z,12360
2017-07-24T11:29:25.710Z,12652
2017-07-24T11:30:25.695Z,12696
2017-07-24T11:31:55.243Z,13112
2017-07-24T11:32:26.081Z,13180
2017-07-24T11:33:26.089Z,13248
2017-07-24T11:34:26.353Z,13180
2017-07-24T11:35:26.157Z,13372
2017-07-24T11:36:25.583Z,13440
2017-07-24T11:37:26.225Z,13348
2017-07-24T11:38:26.242Z,13236
2017-07-24T11:39:26.283Z,13028
2017-07-24T11:40:26.334Z,13068
2017-07-24T11:41:26.368Z,13140
2017-07-24T11:42:25.765Z,12952
2017-07-24T11:44:26.442Z,13088
2017-07-24T11:45:26.496Z,12960
2017-07-24T11:46:26.511Z,13100
2017-07-24T11:47:26.550Z,13068
2017-07-24T11:48:26.563Z,12876
2017-07-24T11:49:26.296Z,12652
2017-07-24T11:50:41.238Z,12548
2017-07-24T11:51:26.684Z,12440
2017-07-24T11:52:26.736Z,12300
2017-07-24T11:53:26.748Z,12312
2017-07-24T11:54:41.360Z,12416
2017-07-24T11:55:26.781Z,12500
2017-07-24T11:56:26.516Z,12504
2017-07-24T11:57:41.475Z,12540
2017-07-24T11:58:26.913Z,12616
2017-07-24T11:59:26.973Z,12524
2017-07-24T12:00:26.652Z,12412
2017-07-24T12:01:26.677Z,12304
2017-07-24T12:02:27.021Z,12268
2017-07-24T12:03:41.345Z,12236
2017-07-24T12:04:27.091Z,12196
2017-07-24T12:05:27.119Z,11928
2017-07-24T12:06:27.139Z,11948
2017-07-24T12:07:26.865Z,12028
2017-07-24T12:08:27.185Z,12416
2017-07-24T12:09:27.263Z,12452
2017-07-24T12:10:26.961Z,12552
2017-07-24T12:11:27.315Z,12608
2017-07-24T12:12:41.934Z,12564
2017-07-24T12:13:27.359Z,12492
2017-07-24T12:14:27.388Z,12380
2017-07-24T12:15:27.433Z,12280
2017-07-24T12:16:27.462Z,12076
2017-07-24T12:17:27.179Z,11936
2017-07-24T12:18:27.512Z,11868
2017-07-24T12:19:42.170Z,12028
2017-07-24T12:20:27.577Z,12044
2017-07-24T12:21:27.635Z,11996
2017-07-24T12:22:27.650Z,11968
2017-07-24T12:23:27.392Z,11936
2017-07-24T12:24:27.701Z,11880
2017-07-24T12:25:27.427Z,11872
2017-07-24T12:26:42.384Z,11876
2017-07-24T12:27:27.798Z,11904
2017-07-24T12:28:27.825Z,11904
2017-07-24T12:30:42.490Z,11888
2017-07-24T12:31:27.938Z,11904
2017-07-24T12:32:27.972Z,11988
2017-07-24T12:33:27.985Z,12048
2017-07-24T12:34:27.717Z,12004
2017-07-24T12:35:42.642Z,12004
2017-07-24T12:36:28.099Z,11972
2017-07-24T12:39:28.186Z,12112
2017-07-24T12:40:28.188Z,12232
2017-07-24T12:41:28.248Z,12320
2017-07-24T12:42:28.270Z,12364
2017-07-24T12:43:42.902Z,12360
2017-07-24T12:44:28.041Z,12256
2017-07-24T12:45:42.964Z,12160
2017-07-24T12:46:28.392Z,12248
2017-07-24T12:47:28.441Z,12356
2017-07-24T12:48:28.464Z,12436
2017-07-24T12:49:28.515Z,12584
2017-07-24T12:50:28.516Z,12440
2017-07-24T12:53:28.598Z,12020
2017-07-24T12:54:28.657Z,11900
2017-07-24T12:55:28.664Z,11844
2017-07-24T12:56:28.721Z,11844
2017-07-24T12:57:28.730Z,11904
2017-07-24T12:58:28.779Z,11984
2017-07-24T12:59:28.783Z,11856
2017-07-24T13:00:28.851Z,11656
2017-07-24T13:01:28.546Z,11604
2017-07-24T13:02:28.906Z,11480
2017-07-24T13:03:28.943Z,11524
2017-07-24T13:04:28.985Z,11712
2017-07-24T13:05:28.680Z,11612
2017-07-24T13:06:43.622Z,11372
2017-07-24T13:07:28.748Z,11508
2017-07-24T13:08:29.087Z,11656
2017-07-24T13:09:29.118Z,11688
2017-07-24T13:10:29.151Z,11924
2017-07-24T13:11:28.874Z,11988
2017-07-24T13:12:28.909Z,11792
2017-07-24T13:13:28.922Z,11884
2017-07-24T13:14:29.293Z,11804
2017-07-24T13:15:29.283Z,11668
2017-07-24T13:16:43.940Z,11528
2017-07-24T13:17:43.974Z,11368
2017-07-24T13:18:29.397Z,11124
2017-07-24T13:19:29.440Z,10736
2017-07-24T13:20:29.446Z,10668
2017-07-24T13:21:29.496Z,10796
2017-07-24T13:22:29.198Z,11040
2017-07-24T13:23:44.159Z,11036
2017-07-24T13:24:29.579Z,10964
2017-07-24T13:25:29.615Z,10920
2017-07-24T13:26:44.264Z,10860
2017-07-24T13:27:29.678Z,10828
2017-07-24T13:28:44.336Z,10732
2017-07-24T13:29:29.726Z,10732
2017-07-24T13:31:29.811Z,10768
2017-07-24T13:32:29.842Z,10656
2017-07-24T13:33:29.872Z,10544
2017-07-24T13:34:29.896Z,10568
2017-07-24T13:36:29.948Z,10408
2017-07-24T13:37:29.665Z,10308
2017-07-24T13:38:44.627Z,10240
2017-07-24T13:39:29.725Z,10280
2017-07-24T13:41:29.496Z,10356
2017-07-24T13:43:29.862Z,9780
2017-07-24T13:44:30.200Z,9688
2017-07-24T13:45:30.256Z,9536
2017-07-24T13:46:30.248Z,9348
2017-07-24T13:47:30.288Z,9272
2017-07-24T13:48:30.322Z,9304
2017-07-24T13:49:44.956Z,9352
2017-07-24T13:50:30.391Z,9400
2017-07-24T13:51:30.410Z,9456
2017-07-24T13:52:30.454Z,9512
2017-07-24T13:53:45.080Z,9652
2017-07-24T13:54:45.100Z,9604
2017-07-24T13:55:30.542Z,9508
2017-07-24T13:56:30.561Z,9280
2017-07-24T13:57:30.615Z,9248
2017-07-24T13:58:30.299Z,9912
2017-07-24T13:59:30.347Z,9536
2017-07-24T14:00:30.683Z,9448
2017-07-24T14:01:45.011Z,9180
2017-07-24T14:02:30.737Z,8888
2017-07-24T14:03:45.389Z,8392
2017-07-24T14:04:30.808Z,8104
2017-07-24T14:05:30.559Z,7856
2017-07-24T14:06:30.556Z,7796
2017-07-24T14:07:30.909Z,7900
2017-07-24T14:08:30.920Z,8060
2017-07-24T14:10:45.590Z,8368
2017-07-24T14:11:30.714Z,8428
2017-07-24T14:12:31.050Z,8500
2017-07-24T14:13:45.688Z,8748
2017-07-24T14:14:30.810Z,8732
2017-07-24T14:15:31.166Z,9144